La Mesilla, New Mexico
Current Conditions -  °F | °C
As of 1:15 PM on Thursday 23 Oct 2014 (Local Time) from KLAM Reporting Station
Clear Clear  
Wind Chill: 62°   Ceiling: Unl
Heat Index: 62°   Visibility: 10mi
Dew Point: 33°   Wind: 0mph
Humidity: 33%   Direction: NA
Pressure: 30.34"   Gusts: NA
Location:  35.9775°N, 106.158°W
Report Text: KLAM 231915Z AUTO 00000KT 10SM CLR 17/00 A3034 RMK AO2 T01670004
Loading
Personal Weather Stations






























Interactive Weather Map
Tropical Storm Tracking
New forecast layout! Learn more

10-Day Weather Forecast

Advertisements
Track Severe Weather on mobile